createdAt,value
2023-05-19T00:00:02.218Z,3.17
2023-05-19T00:02:39.652Z,4.43
2023-05-19T00:05:08.402Z,3.65
2023-05-19T00:07:41.570Z,6.00
2023-05-19T00:12:37.699Z,13.10
2023-05-19T00:15:05.713Z,5.15
2023-05-19T00:17:41.051Z,3.97
2023-05-19T00:20:09.265Z,2.63
2023-05-19T00:22:37.116Z,3.10
2023-05-19T00:25:06.275Z,3.17
2023-05-19T00:27:33.299Z,4.70
2023-05-19T00:30:00.289Z,3.60
2023-05-19T00:32:27.516Z,3.05
2023-05-19T00:34:54.476Z,5.18
2023-05-19T00:37:22.098Z,4.70
2023-05-19T00:39:49.861Z,3.20
2023-05-19T00:42:16.924Z,2.35
2023-05-19T00:44:44.021Z,3.95
2023-05-19T00:47:11.066Z,5.38
2023-05-19T00:49:38.663Z,3.85
2023-05-19T00:52:07.318Z,2.20
2023-05-19T00:54:35.161Z,4.07
2023-05-19T00:57:03.567Z,6.85
2023-05-19T00:59:38.478Z,4.00
2023-05-19T01:02:06.250Z,4.18
2023-05-19T01:04:34.993Z,3.45
2023-05-19T01:07:03.577Z,4.20
2023-05-19T01:09:32.257Z,3.58
2023-05-19T01:12:01.147Z,6.07
2023-05-19T01:14:29.773Z,3.30
2023-05-19T01:17:58.351Z,3.38
2023-05-19T01:20:36.346Z,4.25
2023-05-19T01:23:36.881Z,5.00
2023-05-19T01:26:47.460Z,5.25
2023-05-19T01:29:32.431Z,6.70
2023-05-19T01:32:00.912Z,7.75
2023-05-19T01:34:29.608Z,4.45
2023-05-19T01:36:58.408Z,7.40
2023-05-19T01:39:28.560Z,3.28
2023-05-19T01:41:58.250Z,6.15
2023-05-19T01:44:25.691Z,4.78
2023-05-19T01:46:54.949Z,4.35
2023-05-19T01:49:22.251Z,3.63
2023-05-19T01:51:49.596Z,5.57
2023-05-19T01:54:16.669Z,3.72
2023-05-19T01:57:18.810Z,5.07
2023-05-19T02:00:09.402Z,4.55
2023-05-19T02:02:59.301Z,8.52
2023-05-19T02:05:56.742Z,5.68
2023-05-19T02:08:48.384Z,3.20
2023-05-19T02:11:25.448Z,4.20
2023-05-19T02:13:56.956Z,5.60
2023-05-19T02:16:29.470Z,5.68
2023-05-19T02:18:57.371Z,5.60
2023-05-19T02:21:24.462Z,4.32
2023-05-19T02:23:51.646Z,4.35
2023-05-19T02:26:20.130Z,4.60
2023-05-19T02:28:47.135Z,6.45
2023-05-19T02:31:14.103Z,5.15
2023-05-19T02:33:41.322Z,4.07
2023-05-19T02:36:10.112Z,7.93
2023-05-19T02:38:37.693Z,6.40
2023-05-19T02:41:04.709Z,4.63
2023-05-19T02:43:31.732Z,6.07
2023-05-19T02:45:58.890Z,5.43
2023-05-19T02:48:26.922Z,6.32
2023-05-19T02:50:53.937Z,4.80
2023-05-19T02:53:20.951Z,6.00
2023-05-19T02:55:47.962Z,4.85
2023-05-19T02:58:14.940Z,9.10
2023-05-19T03:00:41.944Z,4.28
2023-05-19T03:03:10.452Z,5.25
2023-05-19T03:05:37.719Z,4.60
2023-05-19T03:08:04.869Z,5.70
2023-05-19T03:10:32.136Z,4.88
2023-05-19T03:12:59.252Z,5.85
2023-05-19T03:15:26.313Z,4.80
2023-05-19T03:17:53.385Z,4.68
2023-05-19T03:20:20.482Z,6.72
2023-05-19T03:22:47.782Z,6.57
2023-05-19T03:25:15.158Z,5.63
2023-05-19T03:27:42.567Z,9.25
2023-05-19T03:30:10.479Z,5.88
2023-05-19T03:32:52.256Z,9.75
2023-05-19T03:35:19.865Z,4.97
2023-05-19T03:37:46.956Z,7.47
2023-05-19T03:40:14.194Z,10.25
2023-05-19T03:42:43.430Z,7.28
2023-05-19T03:45:11.054Z,6.28
2023-05-19T03:47:38.328Z,9.02
2023-05-19T03:50:24.703Z,6.32
2023-05-19T03:52:55.728Z,6.35
2023-05-19T03:55:31.984Z,4.57
2023-05-19T03:57:59.038Z,8.55
2023-05-19T04:00:26.029Z,9.25
2023-05-19T04:02:53.122Z,8.25
2023-05-19T04:05:20.150Z,6.03
2023-05-19T04:07:47.154Z,5.20
2023-05-19T04:10:14.276Z,6.50
2023-05-19T04:12:41.636Z,4.72
2023-05-19T04:15:11.492Z,6.07
2023-05-19T04:17:39.165Z,8.27
2023-05-19T04:20:07.020Z,5.53
2023-05-19T04:22:34.582Z,9.02
2023-05-19T04:25:01.822Z,6.18
2023-05-19T04:27:30.151Z,5.15
2023-05-19T04:29:58.214Z,7.85
2023-05-19T04:32:25.783Z,7.35
2023-05-19T04:34:54.632Z,7.18
2023-05-19T04:37:26.391Z,9.43
2023-05-19T04:39:54.333Z,7.68
2023-05-19T04:42:26.207Z,9.57
2023-05-19T04:44:54.484Z,8.93
2023-05-19T04:47:28.345Z,5.45
2023-05-19T04:49:56.274Z,6.05
2023-05-19T04:52:23.905Z,5.50
2023-05-19T04:54:52.937Z,8.40
2023-05-19T04:57:20.396Z,10.82
2023-05-19T04:59:48.081Z,5.72
2023-05-19T05:02:16.368Z,5.97
2023-05-19T05:04:44.218Z,7.13
2023-05-19T05:07:11.413Z,6.57
2023-05-19T05:09:39.094Z,7.38
2023-05-19T05:12:08.103Z,7.53
2023-05-19T05:14:37.686Z,8.55
2023-05-19T05:17:05.235Z,7.00
2023-05-19T05:19:35.370Z,5.97
2023-05-19T05:22:02.889Z,8.95
2023-05-19T05:24:32.045Z,5.55
2023-05-19T05:27:01.444Z,8.00
2023-05-19T05:29:29.045Z,6.47
2023-05-19T05:31:56.271Z,8.85
2023-05-19T05:34:23.750Z,8.23
2023-05-19T05:36:51.116Z,7.10
2023-05-19T05:39:19.024Z,7.32
2023-05-19T05:41:46.293Z,7.00
2023-05-19T05:44:13.407Z,7.18
2023-05-19T05:46:43.864Z,8.02
2023-05-19T05:49:13.978Z,6.57
2023-05-19T05:51:51.377Z,7.25
2023-05-19T05:54:33.602Z,10.20
2023-05-19T05:57:02.740Z,7.85
2023-05-19T05:59:30.172Z,12.00
2023-05-19T06:01:57.291Z,7.22
2023-05-19T06:04:40.846Z,8.18
2023-05-19T06:07:08.443Z,8.75
2023-05-19T06:09:37.987Z,7.60
2023-05-19T06:12:06.935Z,7.30
2023-05-19T06:14:43.196Z,12.18
2023-05-19T06:17:22.780Z,7.80
2023-05-19T06:19:55.115Z,9.05
2023-05-19T06:22:22.834Z,10.10
2023-05-19T06:24:50.490Z,9.23
2023-05-19T06:27:19.829Z,8.80
2023-05-19T06:29:48.417Z,12.32
2023-05-19T06:32:20.848Z,9.75
2023-05-19T06:34:55.058Z,9.20
2023-05-19T06:37:23.487Z,7.20
2023-05-19T06:40:04.274Z,6.43
2023-05-19T06:42:34.590Z,7.40
2023-05-19T06:45:29.900Z,10.23
2023-05-19T06:48:00.769Z,7.47
2023-05-19T06:50:30.013Z,6.97
2023-05-19T06:53:03.069Z,10.63
2023-05-19T06:56:26.403Z,8.13
2023-05-19T06:58:56.318Z,6.93
2023-05-19T07:01:30.403Z,7.40
2023-05-19T07:03:58.826Z,8.88
2023-05-19T07:06:50.980Z,7.57
2023-05-19T07:09:29.740Z,8.45
2023-05-19T07:11:57.984Z,6.55
2023-05-19T07:14:25.347Z,7.38
2023-05-19T07:16:52.630Z,8.50
2023-05-19T07:19:20.044Z,9.13
2023-05-19T07:21:51.197Z,8.90
2023-05-19T07:24:18.385Z,6.13
2023-05-19T07:26:54.836Z,6.57
2023-05-19T07:29:21.976Z,7.95
2023-05-19T07:31:54.175Z,8.88
2023-05-19T07:34:22.006Z,6.40
2023-05-19T07:36:49.167Z,7.82
2023-05-19T07:39:27.941Z,8.82
2023-05-19T07:41:57.692Z,8.35
2023-05-19T07:44:46.785Z,6.85
2023-05-19T07:47:14.662Z,9.30
2023-05-19T07:52:27.722Z,9.00
2023-05-19T07:54:54.834Z,8.15
2023-05-19T07:57:22.357Z,9.40
2023-05-19T07:59:49.641Z,7.63
2023-05-19T08:02:16.763Z,8.55
2023-05-19T08:04:45.981Z,6.97
2023-05-19T08:07:16.364Z,8.75
2023-05-19T08:09:43.574Z,7.90
2023-05-19T08:12:10.626Z,10.88
2023-05-19T08:14:38.835Z,9.70
2023-05-19T08:17:06.324Z,8.90
2023-05-19T08:19:33.425Z,9.70
2023-05-19T08:22:03.699Z,7.78
2023-05-19T08:24:47.021Z,8.48
2023-05-19T08:27:34.765Z,6.57
2023-05-19T08:30:02.459Z,7.43
2023-05-19T08:32:30.248Z,9.18
2023-05-19T08:34:57.782Z,8.10
2023-05-19T08:37:24.816Z,9.27
2023-05-19T08:39:51.863Z,10.50
2023-05-19T08:42:18.906Z,10.70
2023-05-19T08:44:45.949Z,9.13
2023-05-19T08:47:14.351Z,10.27
2023-05-19T08:49:47.430Z,11.20
2023-05-19T08:52:18.227Z,11.10
2023-05-19T08:55:01.124Z,9.77
2023-05-19T08:57:29.227Z,9.20
2023-05-19T08:59:57.050Z,11.50
2023-05-19T09:02:24.649Z,12.25
2023-05-19T09:04:53.365Z,12.00
2023-05-19T09:07:21.972Z,10.93
2023-05-19T09:09:50.367Z,17.00
2023-05-19T09:12:17.616Z,12.02
2023-05-19T09:14:44.754Z,11.02
2023-05-19T09:17:12.059Z,10.55
2023-05-19T09:19:44.473Z,9.77
2023-05-19T09:22:12.071Z,11.10
2023-05-19T09:24:40.522Z,13.30
2023-05-19T09:27:08.477Z,12.43
2023-05-19T09:29:35.636Z,14.98
2023-05-19T09:32:05.197Z,10.57
2023-05-19T09:34:32.416Z,13.43
2023-05-19T09:37:14.213Z,10.73
2023-05-19T09:39:41.304Z,11.15
2023-05-19T09:42:08.453Z,12.93
2023-05-19T09:44:38.129Z,11.98
2023-05-19T09:47:05.362Z,14.40
2023-05-19T09:49:33.008Z,10.95
2023-05-19T09:52:06.659Z,11.65
2023-05-19T09:54:34.721Z,12.00
2023-05-19T09:57:07.056Z,10.55
2023-05-19T09:59:36.628Z,10.88
2023-05-19T10:02:03.975Z,10.45
2023-05-19T10:04:31.896Z,9.85
2023-05-19T10:06:59.923Z,12.18
2023-05-19T10:09:47.523Z,14.18
2023-05-19T10:12:15.206Z,11.88
2023-05-19T10:14:42.464Z,13.25
2023-05-19T10:17:10.500Z,14.80
2023-05-19T10:19:38.818Z,14.75
2023-05-19T10:22:13.193Z,14.88
2023-05-19T10:24:40.627Z,16.10
2023-05-19T10:27:14.838Z,16.52
2023-05-19T10:29:49.269Z,10.00
2023-05-19T10:32:35.573Z,12.43
2023-05-19T10:35:33.281Z,12.98
2023-05-19T10:38:43.027Z,13.48
2023-05-19T10:41:48.295Z,12.05
2023-05-19T10:45:05.143Z,10.25
2023-05-19T10:47:33.737Z,12.73
2023-05-19T10:50:01.497Z,10.55
2023-05-19T10:52:31.078Z,13.95
2023-05-19T10:54:58.566Z,12.00
2023-05-19T10:57:32.188Z,13.27
2023-05-19T11:00:14.346Z,12.70
2023-05-19T11:02:44.130Z,11.68
2023-05-19T11:05:18.544Z,12.52
2023-05-19T11:07:57.259Z,8.80
2023-05-19T11:10:24.641Z,13.20
2023-05-19T11:12:52.319Z,8.30
2023-05-19T11:15:27.545Z,10.57
2023-05-19T11:17:55.386Z,12.15
2023-05-19T11:20:24.789Z,10.52
2023-05-19T11:23:06.091Z,8.95
2023-05-19T11:25:53.964Z,8.63
2023-05-19T11:28:29.343Z,9.55
2023-05-19T11:30:59.223Z,10.10
2023-05-19T11:33:30.206Z,9.27
2023-05-19T11:36:00.597Z,11.95
2023-05-19T11:38:30.194Z,11.70
2023-05-19T11:40:58.369Z,9.13
2023-05-19T11:43:26.666Z,8.35
2023-05-19T11:45:55.980Z,7.53
2023-05-19T11:48:25.435Z,8.63
2023-05-19T11:50:52.828Z,9.57
2023-05-19T11:53:23.337Z,8.27
2023-05-19T11:55:51.305Z,13.02
2023-05-19T11:58:27.024Z,13.68
2023-05-19T12:00:54.628Z,11.20
2023-05-19T12:03:26.578Z,10.43
2023-05-19T12:05:54.694Z,9.20
2023-05-19T12:08:27.815Z,8.55
2023-05-19T12:10:56.270Z,8.80
2023-05-19T12:13:23.496Z,7.60
2023-05-19T12:15:53.723Z,7.43
2023-05-19T12:18:21.327Z,10.65
2023-05-19T12:20:48.726Z,7.55
2023-05-19T12:23:16.645Z,7.85
2023-05-19T12:25:47.583Z,9.95
2023-05-19T12:28:17.011Z,7.72
2023-05-19T12:30:48.827Z,11.27
2023-05-19T12:33:16.665Z,11.13
2023-05-19T12:35:44.638Z,7.22
2023-05-19T12:38:12.074Z,8.05
2023-05-19T12:40:44.343Z,9.43
2023-05-19T12:43:23.230Z,11.60
2023-05-19T12:45:50.482Z,11.13
2023-05-19T12:48:18.065Z,10.10
2023-05-19T12:50:45.349Z,7.65
2023-05-19T12:53:13.539Z,13.15
2023-05-19T12:55:46.177Z,12.05
2023-05-19T12:58:15.998Z,10.27
2023-05-19T13:00:47.466Z,10.75
2023-05-19T13:03:18.177Z,11.23
2023-05-19T13:05:48.911Z,12.10
2023-05-19T13:08:34.021Z,18.77
2023-05-19T13:11:02.292Z,9.68
2023-05-19T13:13:29.984Z,13.60
2023-05-19T13:15:57.088Z,10.63
2023-05-19T13:18:24.613Z,10.90
2023-05-19T13:20:55.293Z,9.70
2023-05-19T13:23:22.396Z,12.70
2023-05-19T13:25:50.908Z,12.88
2023-05-19T13:28:18.482Z,13.02
2023-05-19T13:30:46.306Z,17.83
2023-05-19T13:33:13.583Z,10.65
2023-05-19T13:35:40.908Z,10.00
2023-05-19T13:38:10.316Z,10.02
2023-05-19T13:40:40.773Z,11.55
2023-05-19T13:43:08.852Z,12.93
2023-05-19T13:45:36.568Z,11.15
2023-05-19T13:48:04.164Z,14.95
2023-05-19T13:50:31.408Z,13.25
2023-05-19T13:52:59.082Z,15.40
2023-05-19T13:55:27.582Z,13.90
2023-05-19T13:57:55.636Z,12.07
2023-05-19T14:00:23.177Z,13.98
2023-05-19T14:02:50.354Z,12.45
2023-05-19T14:05:17.569Z,12.70
2023-05-19T14:07:44.826Z,13.18
2023-05-19T14:10:12.513Z,11.77
2023-05-19T14:12:49.371Z,12.25
2023-05-19T14:15:20.541Z,14.10
2023-05-19T14:17:49.168Z,13.23
2023-05-19T14:20:17.556Z,12.70
2023-05-19T14:22:47.249Z,15.13
2023-05-19T14:25:14.352Z,13.85
2023-05-19T14:27:41.376Z,12.55
2023-05-19T14:30:11.580Z,9.63
2023-05-19T14:32:38.933Z,9.57
2023-05-19T14:35:06.763Z,8.68
2023-05-19T14:37:34.349Z,9.70
2023-05-19T14:40:02.384Z,5.05
2023-05-19T14:42:29.621Z,7.60
2023-05-19T14:44:56.778Z,11.02
2023-05-19T14:47:25.654Z,5.57
2023-05-19T14:49:53.534Z,5.68
2023-05-19T14:52:21.227Z,4.85
2023-05-19T14:54:52.068Z,7.03
2023-05-19T14:57:19.657Z,6.78
2023-05-19T14:59:47.264Z,6.93
2023-05-19T15:02:16.552Z,9.07
2023-05-19T15:04:43.638Z,9.80
2023-05-19T15:07:11.272Z,7.20
2023-05-19T15:09:39.734Z,6.82
2023-05-19T15:12:06.782Z,5.65
2023-05-19T15:14:33.882Z,8.65
2023-05-19T15:17:01.889Z,6.03
2023-05-19T15:19:29.490Z,6.50
2023-05-19T15:21:56.777Z,5.00
2023-05-19T15:24:24.420Z,6.18
2023-05-19T15:26:52.553Z,4.18
2023-05-19T15:29:20.017Z,4.30
2023-05-19T15:31:51.876Z,6.70
2023-05-19T15:34:23.187Z,3.67
2023-05-19T15:36:50.511Z,6.20
2023-05-19T15:39:18.060Z,4.32
2023-05-19T15:41:45.236Z,6.18
2023-05-19T15:44:12.550Z,4.13
2023-05-19T15:46:39.699Z,3.63
2023-05-19T15:49:07.857Z,4.78
2023-05-19T15:51:35.806Z,2.40
2023-05-19T15:54:03.998Z,4.68
2023-05-19T15:56:31.599Z,3.28
2023-05-19T15:58:59.106Z,5.88
2023-05-19T16:01:27.180Z,2.80
2023-05-19T16:03:55.077Z,6.65
2023-05-19T16:06:22.404Z,3.17
2023-05-19T16:09:05.511Z,3.90
2023-05-19T16:11:32.648Z,3.30
2023-05-19T16:13:59.824Z,2.70
2023-05-19T16:16:27.007Z,2.95
2023-05-19T16:18:54.422Z,3.80
2023-05-19T16:21:22.446Z,6.43
2023-05-19T16:23:49.637Z,5.78
2023-05-19T16:26:16.880Z,5.38
2023-05-19T16:28:44.066Z,4.05
2023-05-19T16:31:11.373Z,4.75
2023-05-19T16:33:38.509Z,5.32
2023-05-19T16:36:07.594Z,3.93
2023-05-19T16:38:34.856Z,4.97
2023-05-19T16:41:03.689Z,6.03
2023-05-19T16:43:33.514Z,5.10
2023-05-19T16:46:03.575Z,4.20
2023-05-19T16:48:31.033Z,3.00
2023-05-19T16:50:58.204Z,6.13
2023-05-19T16:53:25.322Z,5.53
2023-05-19T16:55:55.484Z,3.90
2023-05-19T16:58:22.875Z,4.20
2023-05-19T17:00:53.739Z,3.85
2023-05-19T17:03:21.012Z,5.32
2023-05-19T17:05:52.975Z,15.50
2023-05-19T17:08:20.914Z,9.57
2023-05-19T17:10:48.120Z,9.68
2023-05-19T17:13:15.233Z,3.38
2023-05-19T17:15:43.371Z,3.70
2023-05-19T17:18:12.620Z,2.45
2023-05-19T17:20:39.821Z,3.88
2023-05-19T17:23:07.241Z,2.60
2023-05-19T17:25:34.787Z,4.38
2023-05-19T17:28:01.967Z,3.85
2023-05-19T17:30:29.154Z,4.65
2023-05-19T17:32:59.005Z,2.35
2023-05-19T17:35:28.298Z,2.42
2023-05-19T17:37:55.637Z,4.85
2023-05-19T17:40:22.711Z,3.88
2023-05-19T17:42:50.323Z,3.75
2023-05-19T17:45:17.790Z,3.63
2023-05-19T17:47:44.834Z,5.38
2023-05-19T17:50:11.984Z,5.20
2023-05-19T17:52:40.882Z,2.33
2023-05-19T17:55:09.608Z,1.90
2023-05-19T17:57:39.927Z,1.70
2023-05-19T18:00:10.652Z,12.55
2023-05-19T18:02:39.673Z,2.53
2023-05-19T18:05:07.809Z,2.70
2023-05-19T18:07:41.275Z,3.42
2023-05-19T18:10:11.263Z,2.00
2023-05-19T18:12:38.440Z,2.92
2023-05-19T18:15:06.732Z,5.05
2023-05-19T18:17:33.930Z,3.03
2023-05-19T18:20:04.170Z,1.17
2023-05-19T18:22:31.525Z,1.15
2023-05-19T18:24:58.682Z,2.97
2023-05-19T18:27:27.847Z,1.52
2023-05-19T18:29:54.989Z,2.13
2023-05-19T18:32:22.043Z,2.30
2023-05-19T18:34:51.003Z,1.67
2023-05-19T18:37:18.341Z,2.08
2023-05-19T18:39:47.477Z,1.90
2023-05-19T18:42:14.580Z,2.90
2023-05-19T18:44:42.330Z,3.35
2023-05-19T18:47:09.715Z,2.42
2023-05-19T18:49:36.868Z,3.30
2023-05-19T18:52:04.268Z,2.05
2023-05-19T18:54:32.599Z,2.53
2023-05-19T18:57:07.238Z,2.00
2023-05-19T18:59:35.082Z,2.20
2023-05-19T19:02:05.358Z,4.72
2023-05-19T19:04:33.603Z,3.08
2023-05-19T19:07:01.372Z,2.53
2023-05-19T19:09:28.710Z,3.20
2023-05-19T19:11:55.874Z,3.17
2023-05-19T19:14:23.117Z,3.28
2023-05-19T19:16:50.249Z,3.30
2023-05-19T19:19:17.382Z,2.45
2023-05-19T19:21:48.751Z,2.45
2023-05-19T19:24:16.087Z,2.42
2023-05-19T19:26:43.216Z,2.60
2023-05-19T19:29:10.392Z,3.35
2023-05-19T19:31:37.771Z,1.88
2023-05-19T19:34:09.194Z,2.88
2023-05-19T19:36:36.572Z,5.70
2023-05-19T19:39:03.732Z,2.38
2023-05-19T19:41:32.267Z,1.65
2023-05-19T19:43:59.463Z,1.90
2023-05-19T19:46:26.718Z,2.55
2023-05-19T19:48:58.190Z,1.50
2023-05-19T19:51:25.395Z,1.92
2023-05-19T19:53:52.725Z,1.83
2023-05-19T19:56:23.658Z,5.18
2023-05-19T19:58:51.402Z,2.55
2023-05-19T20:01:23.556Z,4.43
2023-05-19T20:03:52.026Z,5.72
2023-05-19T20:06:19.354Z,3.17
2023-05-19T20:08:52.482Z,5.05
2023-05-19T20:11:22.977Z,3.87
2023-05-19T20:13:50.487Z,3.47
2023-05-19T20:16:17.585Z,2.38
2023-05-19T20:18:45.192Z,2.75
2023-05-19T20:21:13.408Z,3.45
2023-05-19T20:23:40.827Z,3.30
2023-05-19T20:26:13.038Z,5.40
2023-05-19T20:29:13.412Z,5.85
2023-05-19T20:31:42.418Z,5.38
2023-05-19T20:34:09.771Z,5.70
2023-05-19T20:36:37.061Z,7.43
2023-05-19T20:39:11.680Z,5.70
2023-05-19T20:41:38.897Z,6.22
2023-05-19T20:44:06.542Z,7.63
2023-05-19T20:46:34.034Z,5.85
2023-05-19T20:49:01.809Z,6.50
2023-05-19T20:51:29.265Z,7.22
2023-05-19T20:54:05.522Z,5.93
2023-05-19T20:56:33.030Z,7.80
2023-05-19T20:59:00.068Z,9.95
2023-05-19T21:01:28.374Z,11.20
2023-05-19T21:03:58.114Z,9.65
2023-05-19T21:06:25.217Z,8.45
2023-05-19T21:08:52.263Z,9.80
2023-05-19T21:11:21.678Z,7.13
2023-05-19T21:13:50.195Z,12.60
2023-05-19T21:16:17.272Z,9.65
2023-05-19T21:18:44.444Z,11.40
2023-05-19T21:21:11.928Z,7.40
2023-05-19T21:23:38.964Z,8.90
2023-05-19T21:26:07.419Z,12.10
2023-05-19T21:28:34.824Z,8.18
2023-05-19T21:31:05.438Z,9.90
2023-05-19T21:33:47.940Z,11.35
2023-05-19T21:36:45.796Z,8.95
2023-05-19T21:39:18.665Z,8.95
2023-05-19T21:42:00.083Z,9.90
2023-05-19T21:44:34.271Z,10.68
2023-05-19T21:47:01.967Z,11.53
2023-05-19T21:49:29.978Z,14.52
2023-05-19T21:51:57.373Z,13.23
2023-05-19T21:54:24.668Z,13.40
2023-05-19T21:56:56.119Z,15.15
2023-05-19T21:59:24.821Z,16.48
2023-05-19T22:01:52.525Z,18.27
2023-05-19T22:04:21.325Z,17.80
2023-05-19T22:06:48.637Z,16.42
2023-05-19T22:09:16.771Z,19.73
2023-05-19T22:11:44.132Z,19.67
2023-05-19T22:14:11.646Z,18.95
2023-05-19T22:16:40.569Z,21.08
2023-05-19T22:19:08.201Z,20.35
2023-05-19T22:21:35.633Z,30.13
2023-05-19T22:24:05.266Z,22.48
2023-05-19T22:26:35.893Z,22.92
2023-05-19T22:29:06.259Z,18.90
2023-05-19T22:31:33.311Z,23.70
2023-05-19T22:34:00.846Z,25.27
2023-05-19T22:36:28.420Z,27.05
2023-05-19T22:38:55.696Z,24.73
2023-05-19T22:41:23.831Z,24.77
2023-05-19T22:43:50.920Z,25.25
2023-05-19T22:46:17.954Z,24.92
2023-05-19T22:48:45.761Z,29.00
2023-05-19T22:51:14.045Z,26.80
2023-05-19T22:53:42.795Z,24.27
2023-05-19T22:56:09.752Z,27.02
2023-05-19T22:58:40.596Z,28.52
2023-05-19T23:01:08.930Z,24.13
2023-05-19T23:03:36.187Z,22.90
2023-05-19T23:06:03.248Z,22.17
2023-05-19T23:08:30.389Z,23.80
2023-05-19T23:11:01.127Z,24.17
2023-05-19T23:13:28.495Z,24.13
2023-05-19T23:15:55.524Z,23.88
2023-05-19T23:18:22.645Z,26.75
2023-05-19T23:21:06.584Z,26.10
2023-05-19T23:23:35.875Z,24.88
2023-05-19T23:26:03.761Z,26.83
2023-05-19T23:28:30.851Z,31.27
2023-05-19T23:30:57.997Z,22.52
2023-05-19T23:33:24.994Z,21.83
2023-05-19T23:35:51.982Z,23.83
2023-05-19T23:38:18.938Z,29.77
2023-05-19T23:40:45.977Z,25.20
2023-05-19T23:43:13.244Z,26.23
2023-05-19T23:45:40.286Z,27.27
2023-05-19T23:48:07.352Z,26.88
2023-05-19T23:50:34.823Z,27.10
2023-05-19T23:53:01.939Z,27.80
2023-05-19T23:55:28.935Z,25.38
2023-05-19T23:57:55.919Z,26.05
